In Rescue
 
Open Full Screen Window  High Contrast Mode
Wind Gusting 00 knots
03
June 26, 2019 9:56 PM EDT
Weather Information
Wind Direction
  220 °
Wind Speed
  03 kt (3 mph)
Wind Gust
  00 kt (0 mph)
Altimeter
30.04 in
Visibility
10 SM
Temperature
21° C
70° F
Dewpoint
14° C
57° F
Humidity
64%
Sky Condition
Broken @ 8,500 ft
VFR

METAR KPZQ 270156Z AUTO 22003KT 10SM BKN085 21/14 A3004 RMK AO2 T02130135

FAA Disclaimer: The data displayed is for advisory purposes only and is not to be used for flight planning or operations.